Time;durP1;ratioP1;P1;durP2;ratioP2;P2;SDS_P1;SDS_P2;PMS_P1;PMS_P2;Temp;Humidity;BMP_temperature;BMP_pressure;BME280_temperature;BME280_humidity;BME280_pressure;Samples;Min_cycle;Max_cycle;Signal;HPM_P1;HPM_P2
2022/07/30 00:01:10;;;;;;;14.10;8.13;;;19.50;99.90;;;;;;5048021;28;20431;-51
2022/07/30 00:03:36;;;;;;;12.23;7.10;;;19.40;99.90;;;;;;5049258;28;20437;-51
2022/07/30 00:06:02;;;;;;;11.40;7.20;;;19.30;99.90;;;;;;5051687;28;20429;-51
2022/07/30 00:08:28;;;;;;;10.93;6.15;;;19.40;99.90;;;;;;5051132;28;20917;-51
2022/07/30 00:10:53;;;;;;;10.50;6.80;;;19.40;99.90;;;;;;5051349;28;20394;-53
2022/07/30 00:13:22;;;;;;;16.40;7.60;;;19.20;99.90;;;;;;5050761;28;20477;-51
2022/07/30 00:15:48;;;;;;;11.50;6.90;;;19.10;99.90;;;;;;5042236;28;20914;-51
2022/07/30 00:18:13;;;;;;;11.50;7.03;;;19.00;99.90;;;;;;5050486;28;20511;-51
2022/07/30 00:20:39;;;;;;;11.88;7.28;;;18.80;99.90;;;;;;5050738;28;20925;-51
2022/07/30 00:23:07;;;;;;;10.23;6.53;;;18.80;99.90;;;;;;5051047;28;20750;-51
2022/07/30 00:25:36;;;;;;;10.50;6.38;;;18.90;99.90;;;;;;5051621;28;20404;-51
2022/07/30 00:28:05;;;;;;;10.67;6.47;;;18.90;99.90;;;;;;5051170;28;20893;-53
2022/07/30 00:30:33;;;;;;;10.80;6.68;;;18.90;29.40;;;;;;5050348;28;20393;-51
2022/07/30 00:32:58;;;;;;;9.63;6.00;;;19.00;1.00;;;;;;5051461;28;20754;-53
2022/07/30 00:35:51;;;;;;;11.32;6.43;;;19.00;1.00;;;;;;5050759;28;20488;-53
2022/07/30 00:38:17;;;;;;;11.43;6.53;;;19.00;1.00;;;;;;5050799;28;20389;-54
2022/07/30 00:40:57;;;;;;;11.20;6.30;;;19.00;1.00;;;;;;5050933;28;20486;-53
2022/07/30 00:43:34;;;;;;;9.60;6.10;;;19.00;1.00;;;;;;5049757;28;20381;-52
2022/07/30 00:46:02;;;;;;;10.40;6.30;;;19.00;1.00;;;;;;5051059;28;20488;-51
2022/07/30 00:48:42;;;;;;;8.80;5.20;;;19.10;1.00;;;;;;5048079;28;20489;-51
2022/07/30 00:51:11;;;;;;;11.40;6.30;;;19.10;99.90;;;;;;5050066;28;20404;-59
2022/07/30 00:53:42;;;;;;;10.20;6.20;;;19.20;99.90;;;;;;5050574;28;20389;-51
2022/07/30 00:56:08;;;;;;;11.90;6.50;;;19.20;99.90;;;;;;5048201;28;20703;-51
2022/07/30 00:58:46;;;;;;;9.23;6.17;;;19.30;21.00;;;;;;5051309;28;20394;-51
2022/07/30 01:01:16;;;;;;;12.75;6.40;;;19.40;1.00;;;;;;5048319;28;20393;-51
2022/07/30 01:03:48;;;;;;;12.27;6.47;;;19.40;1.00;;;;;;5046795;28;20397;-51
2022/07/30 01:06:25;;;;;;;10.27;6.22;;;19.40;1.00;;;;;;5050196;28;20852;-51
2022/07/30 01:08:50;;;;;;;10.45;6.28;;;19.30;1.00;;;;;;5047823;28;20504;-51
2022/07/30 01:11:16;;;;;;;9.82;6.13;;;18.90;1.00;;;;;;5049583;28;20472;-51
2022/07/30 01:13:43;;;;;;;10.05;6.13;;;19.30;1.00;;;;;;5050192;28;20386;-51
2022/07/30 01:16:27;;;;;;;9.48;6.30;;;19.30;1.00;;;;;;5050011;28;20392;-51
2022/07/30 01:22:24;;;;;;;9.03;5.90;;;19.20;1.00;;;;;;5001151;28;20403;-51
2022/07/30 01:25:19;;;;;;;10.87;5.97;;;19.20;1.00;;;;;;5047816;28;20402;-51
2022/07/30 01:28:11;;;;;;;11.90;5.95;;;19.10;82.10;;;;;;5049378;28;20564;-51
2022/07/30 01:30:41;;;;;;;10.32;6.22;;;19.00;99.90;;;;;;5048785;28;20428;-51
2022/07/30 01:33:29;;;;;;;10.70;6.30;;;18.90;1.00;;;;;;5047655;28;20388;-59
2022/07/30 01:36:07;;;;;;;12.27;6.72;;;18.80;1.00;;;;;;5050672;28;20447;-51
2022/07/30 01:39:06;;;;;;;10.82;6.30;;;18.60;99.90;;;;;;5048762;28;20444;-51
2022/07/30 01:41:34;;;;;;;11.15;6.57;;;18.60;99.90;;;;;;5047634;28;20485;-50
2022/07/30 01:44:06;;;;;;;10.50;6.20;;;18.50;99.90;;;;;;5050056;28;20404;-51
2022/07/30 01:46:33;;;;;;;12.13;6.45;;;18.50;99.90;;;;;;5043956;28;20438;-51
2022/07/30 01:49:13;;;;;;;9.88;5.70;;;18.40;99.90;;;;;;5049311;28;20460;-50
2022/07/30 01:51:50;;;;;;;9.90;6.20;;;18.40;99.90;;;;;;5048546;28;20400;-51
2022/07/30 01:54:47;;;;;;;10.55;6.60;;;18.30;99.90;;;;;;5049098;28;20530;-50
2022/07/30 01:57:18;;;;;;;9.60;5.93;;;18.30;99.90;;;;;;5048229;28;20863;-51
2022/07/30 01:59:47;;;;;;;9.77;6.13;;;18.20;86.40;;;;;;5049114;28;20405;-50
2022/07/30 02:02:19;;;;;;;10.20;6.32;;;18.20;99.90;;;;;;5048828;28;20412;-56
2022/07/30 02:04:48;;;;;;;10.40;6.32;;;18.20;99.90;;;;;;5049919;28;20404;-50
2022/07/30 02:07:36;;;;;;;10.48;6.38;;;18.20;99.90;;;;;;5048646;28;20421;-51
2022/07/30 02:10:18;;;;;;;10.40;5.90;;;18.10;99.90;;;;;;5048541;28;20397;-51
2022/07/30 02:13:17;;;;;;;10.60;6.10;;;18.10;99.90;;;;;;5049666;28;20381;-51
2022/07/30 02:16:06;;;;;;;10.65;6.20;;;18.10;99.90;;;;;;5048976;28;20403;-51
2022/07/30 02:19:01;;;;;;;11.45;6.00;;;18.10;61.30;;;;;;5046856;28;20487;-50
2022/07/30 02:21:35;;;;;;;9.50;5.70;;;18.20;62.00;;;;;;5038876;28;20972;-51
2022/07/30 02:24:09;;;;;;;10.70;6.25;;;18.10;1.00;;;;;;5049542;28;20401;-50
2022/07/30 02:26:41;;;;;;;9.32;5.50;;;18.10;43.70;;;;;;5045949;28;20413;-50
2022/07/30 02:29:08;;;;;;;10.95;6.10;;;18.00;99.90;;;;;;5048536;28;20839;-59
2022/07/30 02:31:38;;;;;;;10.20;5.82;;;17.90;99.90;;;;;;5048868;28;20455;-51
2022/07/30 02:34:09;;;;;;;9.13;5.70;;;18.00;99.90;;;;;;5048777;28;20401;-51
2022/07/30 02:36:42;;;;;;;10.30;6.10;;;17.90;99.90;;;;;;5049131;28;20397;-51
2022/07/30 02:39:18;;;;;;;11.63;6.60;;;17.80;99.90;;;;;;5048984;28;20904;-58
2022/07/30 02:41:45;;;;;;;11.90;5.80;;;17.80;99.90;;;;;;5048957;28;20400;-51
2022/07/30 02:44:33;;;;;;;10.85;6.30;;;17.70;99.90;;;;;;5048031;28;20726;-60
2022/07/30 02:47:02;;;;;;;10.38;6.45;;;17.70;99.90;;;;;;5047635;28;20429;-53
2022/07/30 02:52:31;;;;;;;11.15;6.70;;;17.90;99.90;;;;;;5047780;28;20993;-52
2022/07/30 02:54:59;;;;;;;12.63;6.72;;;17.90;99.90;;;;;;5048686;28;20858;-51
2022/07/30 02:57:26;;;;;;;10.60;6.20;;;17.90;40.00;;;;;;5047912;28;20866;-50
2022/07/30 03:00:02;;;;;;;11.07;7.18;;;17.90;1.00;;;;;;5048873;28;20393;-52
2022/07/30 03:02:32;;;;;;;12.60;6.32;;;17.90;1.00;;;;;;5047635;28;20369;-53
2022/07/30 03:05:16;;;;;;;12.43;7.20;;;18.00;1.00;;;;;;5030360;28;20763;-54
2022/07/30 03:07:46;;;;;;;11.50;7.28;;;18.00;1.00;;;;;;5048094;28;20489;-54
2022/07/30 03:10:16;;;;;;;12.27;7.40;;;18.00;1.00;;;;;;5047856;28;20394;-58
2022/07/30 03:12:44;;;;;;;11.32;7.20;;;18.00;1.00;;;;;;5048844;28;20393;-51
2022/07/30 03:15:11;;;;;;;10.80;6.63;;;18.00;99.90;;;;;;5048244;28;20510;-59
2022/07/30 03:17:43;;;;;;;10.82;6.97;;;17.90;1.00;;;;;;5048610;28;20389;-52
2022/07/30 03:20:12;;;;;;;11.35;7.32;;;17.90;99.90;;;;;;5045673;28;20421;-59
2022/07/30 03:22:43;;;;;;;11.73;7.25;;;17.90;1.00;;;;;;5048700;28;20443;-53
2022/07/30 03:25:13;;;;;;;12.80;6.80;;;17.90;1.00;;;;;;5048304;28;20398;-58
2022/07/30 03:27:39;;;;;;;12.07;7.38;;;17.70;1.00;;;;;;5048024;28;20405;-53
2022/07/30 03:30:06;;;;;;;12.00;6.88;;;17.90;1.00;;;;;;5048323;28;20412;-53
2022/07/30 03:32:34;;;;;;;12.30;6.60;;;17.90;1.00;;;;;;5047533;28;20468;-51
2022/07/30 03:35:00;;;;;;;11.98;7.70;;;17.80;1.00;;;;;;5048393;28;20394;-52
2022/07/30 03:37:27;;;;;;;13.95;8.00;;;17.70;1.00;;;;;;5049222;28;20385;-51
2022/07/30 03:39:54;;;;;;;12.18;6.85;;;17.70;1.00;;;;;;5052119;28;20890;-52
2022/07/30 03:42:20;;;;;;;15.40;7.90;;;17.70;1.00;;;;;;5051472;28;20443;-51
2022/07/30 03:44:48;;;;;;;12.27;7.50;;;17.70;1.00;;;;;;5052653;28;20969;-51
2022/07/30 03:47:14;;;;;;;12.27;7.32;;;17.70;99.90;;;;;;5051436;28;20385;-52
2022/07/30 03:49:40;;;;;;;11.90;7.20;;;17.80;99.90;;;;;;5052202;28;20413;-51
2022/07/30 03:52:07;;;;;;;12.73;7.07;;;17.70;99.90;;;;;;5052203;28;20381;-51
2022/07/30 03:54:34;;;;;;;12.68;6.70;;;17.70;99.90;;;;;;5051213;28;20395;-54
2022/07/30 03:57:01;;;;;;;10.20;6.72;;;17.80;99.90;;;;;;5052270;28;20472;-53
2022/07/30 03:59:27;;;;;;;12.75;7.78;;;17.70;99.90;;;;;;5049872;28;20405;-53
2022/07/30 04:01:54;;;;;;;10.73;7.20;;;17.70;4.10;;;;;;5051836;28;20876;-51
2022/07/30 04:04:20;;;;;;;13.40;7.90;;;17.60;99.90;;;;;;5050824;28;20393;-51
2022/07/30 04:06:45;;;;;;;12.25;7.70;;;17.60;99.90;;;;;;5051402;28;20754;-51
2022/07/30 04:09:11;;;;;;;12.37;8.17;;;17.60;96.40;;;;;;5051373;28;20496;-60
2022/07/30 04:11:38;;;;;;;13.95;7.40;;;17.50;99.90;;;;;;5050494;28;20404;-51
2022/07/30 04:14:04;;;;;;;10.88;7.10;;;17.50;99.90;;;;;;5050650;28;20400;-51
2022/07/30 04:16:38;;;;;;;14.10;8.30;;;17.60;10.30;;;;;;5051625;28;20369;-51
2022/07/30 04:19:09;;;;;;;11.52;7.30;;;17.50;99.90;;;;;;5052246;28;20411;-51
2022/07/30 04:21:38;;;;;;;12.23;7.63;;;17.50;99.90;;;;;;5051366;28;20386;-53
2022/07/30 04:24:05;;;;;;;11.40;7.63;;;17.50;99.90;;;;;;5051713;28;20874;-49
2022/07/30 04:26:33;;;;;;;11.65;7.40;;;17.40;1.00;;;;;;5050368;28;20408;-51
2022/07/30 04:29:00;;;;;;;13.20;7.70;;;17.40;1.00;;;;;;5051627;28;20413;-49
2022/07/30 04:31:27;;;;;;;11.50;7.35;;;17.50;99.90;;;;;;5049369;28;20504;-49
2022/07/30 04:33:53;;;;;;;12.00;7.30;;;17.50;99.90;;;;;;5052009;28;20460;-52
2022/07/30 04:36:18;;;;;;;13.00;8.40;;;17.60;99.90;;;;;;5051120;28;20485;-51
2022/07/30 04:38:44;;;;;;;12.77;7.70;;;17.70;7.60;;;;;;5051659;28;20945;-52
2022/07/30 04:41:09;;;;;;;13.50;7.80;;;17.80;1.00;;;;;;5051185;28;20424;-60
2022/07/30 04:43:35;;;;;;;13.18;7.43;;;17.90;99.90;;;;;;5051344;28;20464;-51
2022/07/30 04:46:00;;;;;;;14.18;8.60;;;18.00;99.90;;;;;;5051091;28;20401;-51
2022/07/30 04:48:27;;;;;;;15.83;8.30;;;18.00;1.00;;;;;;5050270;28;20413;-51
2022/07/30 04:50:55;;;;;;;15.98;8.88;;;18.00;1.00;;;;;;5051344;28;20455;-51
2022/07/30 04:53:21;;;;;;;18.10;8.43;;;18.10;99.90;;;;;;5050792;28;20397;-52
2022/07/30 04:55:49;;;;;;;12.80;8.20;;;18.10;1.00;;;;;;5050762;28;20527;-52
2022/07/30 04:58:18;;;;;;;13.97;8.10;;;18.20;99.90;;;;;;5050044;28;20778;-52
2022/07/30 05:00:44;;;;;;;14.65;9.13;;;18.30;99.90;;;;;;5047774;28;20412;-51
2022/07/30 05:03:13;;;;;;;13.23;7.67;;;18.30;1.00;;;;;;5050215;28;20389;-59
2022/07/30 05:05:42;;;;;;;12.38;7.95;;;18.60;1.00;;;;;;5050587;28;20480;-52
2022/07/30 05:08:08;;;;;;;14.98;8.95;;;18.90;1.00;;;;;;5050425;28;20409;-52
2022/07/30 05:10:43;;;;;;;13.27;7.35;;;19.30;1.00;;;;;;5049499;28;20552;-52
2022/07/30 05:13:27;;;;;;;11.98;7.07;;;20.10;67.20;;;;;;5051032;28;20478;-54
2022/07/30 05:15:53;;;;;;;12.60;7.00;;;21.30;99.90;;;;;;5050452;28;20382;-56
2022/07/30 05:18:19;;;;;;;12.15;7.00;;;22.10;1.00;;;;;;5048189;28;20849;-53
2022/07/30 05:20:47;;;;;;;15.60;6.90;;;22.50;1.00;;;;;;5049799;28;20393;-52
2022/07/30 05:23:20;;;;;;;12.37;6.57;;;23.00;1.00;;;;;;5050277;28;20633;-63
2022/07/30 05:25:49;;;;;;;14.77;6.65;;;23.50;1.00;;;;;;5048690;28;20397;-52
2022/07/30 05:28:17;;;;;;;12.85;6.60;;;24.40;99.90;;;;;;5058556;28;20425;-54
2022/07/30 05:30:43;;;;;;;9.90;6.70;;;25.00;99.90;;;;;;5059453;28;20619;-57
2022/07/30 05:33:15;;;;;;;13.88;7.78;;;;;;;;;;5061327;28;20941;-53
2022/07/30 05:35:41;;;;;;;11.57;6.97;;;;;;;;;;5062560;28;20467;-50
2022/07/30 05:38:06;;;;;;;11.80;6.60;;;26.90;99.90;;;;;;5049394;28;20468;-53
2022/07/30 05:40:32;;;;;;;11.60;6.30;;;27.80;99.90;;;;;;5047298;28;21000;-51
2022/07/30 05:42:57;;;;;;;10.68;5.93;;;27.90;99.90;;;;;;5049509;28;20393;-51
2022/07/30 05:45:23;;;;;;;10.13;5.72;;;28.10;99.90;;;;;;5030736;28;20405;-50
2022/07/30 05:47:49;;;;;;;11.27;5.77;;;28.70;99.90;;;;;;5049109;28;20858;-54
2022/07/30 05:50:14;;;;;;;9.50;5.40;;;29.40;99.90;;;;;;5048687;28;20603;-56
2022/07/30 05:52:40;;;;;;;10.07;5.50;;;29.30;99.90;;;;;;5049350;28;20413;-51
2022/07/30 05:55:06;;;;;;;11.20;6.30;;;28.80;99.90;;;;;;5049097;28;20397;-51
2022/07/30 05:57:35;;;;;;;12.95;6.40;;;27.90;99.90;;;;;;5048086;28;21205;-52
2022/07/30 06:00:01;;;;;;;12.35;6.68;;;27.20;99.90;;;;;;5048688;28;20475;-52
2022/07/30 06:02:27;;;;;;;11.00;7.10;;;26.70;99.90;;;;;;5048425;28;20386;-50
2022/07/30 06:04:55;;;;;;;11.00;6.75;;;26.20;99.90;;;;;;5042574;28;20883;-51
2022/07/30 06:07:35;;;;;;;12.35;7.00;;;25.90;99.90;;;;;;5046411;28;20405;-51
2022/07/30 06:10:12;;;;;;;11.57;6.70;;;26.20;99.90;;;;;;5048516;28;20440;-52
2022/07/30 06:12:58;;;;;;;15.02;6.10;;;27.50;99.90;;;;;;5048610;28;20394;-53
2022/07/30 06:15:33;;;;;;;13.50;6.43;;;28.10;99.90;;;;;;4987731;28;20942;-52
2022/07/30 06:18:07;;;;;;;15.05;6.35;;;28.00;99.90;;;;;;5042963;28;20409;-52
2022/07/30 06:20:35;;;;;;;14.48;5.70;;;27.80;99.90;;;;;;5047574;28;20419;-52
2022/07/30 06:23:07;;;;;;;9.10;5.30;;;28.70;99.90;;;;;;5049007;28;20382;-54
2022/07/30 06:25:41;;;;;;;9.55;5.18;;;29.10;99.90;;;;;;5047753;28;20929;-55
2022/07/30 06:28:09;;;;;;;10.38;5.75;;;29.20;99.90;;;;;;5048399;28;20426;-54
2022/07/30 06:30:48;;;;;;;13.90;6.00;;;28.70;99.90;;;;;;5048021;28;20428;-53
2022/07/30 06:33:20;;;;;;;10.27;5.18;;;28.30;99.90;;;;;;5046869;28;20484;-59
2022/07/30 06:35:57;;;;;;;14.63;5.20;;;28.50;99.90;;;;;;5042751;28;20462;-52
2022/07/30 06:38:22;;;;;;;10.57;5.72;;;28.40;99.90;;;;;;5047630;28;20455;-54
2022/07/30 06:40:53;;;;;;;10.98;6.40;;;28.60;99.90;;;;;;5048459;28;20381;-53
2022/07/30 06:43:22;;;;;;;9.52;4.88;;;28.80;99.90;;;;;;5048590;28;20414;-55
2022/07/30 06:46:01;;;;;;;9.13;4.88;;;29.50;99.90;;;;;;5048553;28;20740;-54
2022/07/30 06:48:41;;;;;;;10.10;6.00;;;30.40;99.90;;;;;;5026992;28;20469;-55
2022/07/30 06:51:14;;;;;;;9.10;5.63;;;30.40;99.90;;;;;;5045597;28;20456;-55
2022/07/30 06:53:55;;;;;;;11.70;6.55;;;29.70;99.90;;;;;;5046336;28;20439;-53
2022/07/30 06:56:21;;;;;;;10.98;6.22;;;28.60;99.90;;;;;;5048112;28;20453;-53
2022/07/30 06:58:46;;;;;;;12.30;6.40;;;28.40;99.90;;;;;;5049083;28;20389;-53
2022/07/30 07:01:12;;;;;;;12.00;6.10;;;28.10;99.90;;;;;;5048684;28;20866;-60
2022/07/30 07:03:38;;;;;;;9.60;5.20;;;28.70;99.90;;;;;;5048668;28;20389;-53
2022/07/30 07:06:04;;;;;;;11.15;5.63;;;29.50;99.90;;;;;;5048170;28;20459;-53
2022/07/30 07:08:30;;;;;;;11.40;6.00;;;29.80;99.90;;;;;;5047569;28;20409;-53
2022/07/30 07:10:56;;;;;;;12.10;5.85;;;30.60;99.90;;;;;;5049160;28;20821;-55
2022/07/30 07:13:21;;;;;;;10.80;6.90;;;31.60;99.90;;;;;;5049704;28;20407;-53
2022/07/30 07:15:47;;;;;;;14.53;6.63;;;32.20;99.90;;;;;;5052839;28;20462;-53
2022/07/30 07:18:14;;;;;;;10.73;6.13;;;32.10;99.90;;;;;;5052757;28;20396;-60
2022/07/30 07:20:51;;;;;;;11.35;6.60;;;32.60;99.90;;;;;;5052236;28;20378;-53
2022/07/30 07:23:22;;;;;;;10.50;6.57;;;31.30;99.90;;;;;;5050502;28;20381;-56
2022/07/30 07:26:12;;;;;;;11.70;6.30;;;30.30;99.90;;;;;;5052307;28;20385;-53
2022/07/30 07:28:41;;;;;;;8.98;6.00;;;31.80;99.90;;;;;;5050625;28;20774;-53
2022/07/30 07:31:19;;;;;;;10.63;5.90;;;32.60;99.90;;;;;;5051460;28;20401;-54
2022/07/30 07:33:46;;;;;;;12.98;6.93;;;32.50;99.90;;;;;;5052569;28;20455;-53
2022/07/30 07:36:13;;;;;;;11.38;6.97;;;31.40;99.90;;;;;;5051944;28;20412;-60
2022/07/30 07:38:38;;;;;;;11.80;7.07;;;30.90;99.90;;;;;;5049676;28;20405;-53
2022/07/30 07:41:09;;;;;;;11.87;6.17;;;30.50;99.90;;;;;;5052349;28;20446;-53
2022/07/30 07:43:35;;;;;;;10.10;5.73;;;31.20;99.90;;;;;;5051700;28;20393;-53
2022/07/30 07:46:01;;;;;;;11.63;7.13;;;32.40;99.90;;;;;;5050480;28;20390;-54
2022/07/30 07:48:26;;;;;;;13.20;7.15;;;31.70;99.90;;;;;;5051348;28;20424;-53
2022/07/30 07:50:52;;;;;;;11.23;6.90;;;31.20;99.90;;;;;;5052375;28;20736;-53
2022/07/30 07:53:17;;;;;;;10.95;6.65;;;31.90;99.90;;;;;;5051217;28;20504;-53
2022/07/30 07:55:43;;;;;;;10.83;7.47;;;33.40;99.90;;;;;;5052240;28;20397;-53
2022/07/30 07:58:12;;;;;;;12.40;11.10;;;34.60;99.90;;;;;;5051652;28;20386;-59
2022/07/30 08:00:38;;;;;;;8.45;5.22;;;35.90;99.90;;;;;;5049630;28;20431;-53
2022/07/30 08:03:04;;;;;;;10.55;5.60;;;36.50;1.00;;;;;;5052102;28;20402;-53
2022/07/30 08:05:30;;;;;;;10.00;5.80;;;35.10;1.00;;;;;;5051168;28;20393;-53
2022/07/30 08:07:55;;;;;;;10.30;5.30;;;35.30;1.00;;;;;;5051749;28;20886;-53
2022/07/30 08:10:21;;;;;;;9.63;6.63;;;35.60;1.00;;;;;;5050793;28;20389;-53
2022/07/30 08:12:46;;;;;;;10.13;6.93;;;36.40;1.00;;;;;;5052129;28;20724;-54
2022/07/30 08:15:13;;;;;;;10.83;8.00;;;37.00;99.90;;;;;;5051777;28;20389;-61
2022/07/30 08:17:39;;;;;;;8.83;5.70;;;35.40;99.90;;;;;;5051886;28;20381;-53
2022/07/30 08:20:06;;;;;;;10.80;4.90;;;33.60;99.90;;;;;;5050664;28;20394;-53
2022/07/30 08:22:31;;;;;;;10.15;6.03;;;33.30;1.00;;;;;;5050125;28;20444;-53
2022/07/30 08:24:57;;;;;;;9.60;7.33;;;33.10;1.00;;;;;;5049900;28;20395;-53
2022/07/30 08:27:23;;;;;;;8.57;6.43;;;33.70;1.00;;;;;;5047986;28;20412;-53
2022/07/30 08:29:48;;;;;;;11.90;6.38;;;34.50;1.00;;;;;;5051180;28;20492;-53
2022/07/30 08:32:14;;;;;;;11.57;6.65;;;36.00;1.00;;;;;;5051103;28;20874;-60
2022/07/30 08:34:40;;;;;;;10.40;6.47;;;35.20;99.90;;;;;;5050991;28;20450;-53
2022/07/30 08:37:05;;;;;;;10.60;6.90;;;34.80;99.90;;;;;;5051346;28;20754;-54
2022/07/30 08:39:31;;;;;;;10.85;6.30;;;34.20;1.00;;;;;;5049940;28;20388;-54
2022/07/30 08:41:57;;;;;;;12.10;5.95;;;34.00;1.00;;;;;;5051358;28;20584;-53
2022/07/30 08:44:25;;;;;;;8.73;5.80;;;34.10;1.00;;;;;;5051125;28;20385;-56
2022/07/30 08:46:55;;;;;;;9.60;6.90;;;35.10;1.00;;;;;;5050525;28;20954;-53
2022/07/30 08:49:21;;;;;;;10.27;7.70;;;35.80;99.90;;;;;;5050437;28;20413;-54
2022/07/30 08:51:48;;;;;;;8.60;4.70;;;36.20;99.90;;;;;;5050833;28;20430;-55
2022/07/30 08:54:15;;;;;;;8.07;4.82;;;36.80;99.90;;;;;;5048701;28;20434;-62
2022/07/30 08:56:41;;;;;;;7.45;4.10;;;36.80;99.90;;;;;;5050687;28;20454;-55
2022/07/30 08:59:07;;;;;;;9.10;5.45;;;36.70;99.90;;;;;;5050839;28;20417;-55
2022/07/30 09:01:32;;;;;;;9.38;4.68;;;35.10;99.90;;;;;;5050209;28;20390;-54
2022/07/30 09:03:58;;;;;;;8.70;4.67;;;34.70;99.90;;;;;;5050511;28;20405;-55
2022/07/30 09:06:24;;;;;;;10.07;5.40;;;34.30;1.00;;;;;;5048119;28;20402;-54
2022/07/30 09:08:49;;;;;;;8.80;4.80;;;35.20;1.00;;;;;;5050265;28;20455;-54
2022/07/30 09:11:15;;;;;;;9.32;5.10;;;35.70;1.00;;;;;;5050045;28;20439;-61
2022/07/30 09:13:41;;;;;;;7.67;4.00;;;35.10;1.00;;;;;;5050219;28;20420;-55
2022/07/30 09:16:18;;;;;;;9.77;3.80;;;35.00;1.00;;;;;;5050649;28;20381;-55
2022/07/30 09:18:44;;;;;;;7.20;3.43;;;36.80;1.00;;;;;;5049160;28;20463;-52
2022/07/30 09:21:14;;;;;;;10.40;8.07;;;38.30;1.00;;;;;;5047425;28;20401;-54
2022/07/30 09:23:39;;;;;;;9.48;7.72;;;37.90;99.90;;;;;;5046433;28;20385;-56
2022/07/30 09:26:05;;;;;;;7.18;4.10;;;39.10;1.00;;;;;;5049788;28;20390;-53
2022/07/30 09:28:33;;;;;;;9.70;4.70;;;39.90;1.00;;;;;;5049486;28;20508;-54
2022/07/30 09:30:59;;;;;;;11.70;8.25;;;37.10;99.90;;;;;;5048867;28;20516;-57
2022/07/30 09:33:40;;;;;;;9.23;6.80;;;34.30;99.90;;;;;;5049452;28;20498;-54
2022/07/30 09:36:09;;;;;;;9.65;7.80;;;33.30;99.90;;;;;;5048981;28;20389;-54
2022/07/30 09:38:46;;;;;;;11.80;8.50;;;32.50;99.90;;;;;;5047034;28;20382;-54
2022/07/30 09:41:14;;;;;;;9.63;8.10;;;30.30;99.90;;;;;;5050147;28;20812;-54
2022/07/30 09:43:44;;;;;;;11.05;7.60;;;30.20;99.90;;;;;;5049936;28;20482;-54
2022/07/30 09:46:11;;;;;;;9.32;6.97;;;31.00;99.90;;;;;;5049789;28;20384;-55
2022/07/30 09:48:36;;;;;;;8.82;6.30;;;32.80;99.90;;;;;;5048755;28;20429;-54
2022/07/30 09:51:02;;;;;;;9.35;5.15;;;34.30;99.90;;;;;;5050044;28;20404;-55
2022/07/30 09:53:28;;;;;;;9.40;6.68;;;35.70;99.90;;;;;;5048768;28;20382;-57
2022/07/30 09:55:55;;;;;;;8.83;6.63;;;36.10;99.90;;;;;;5047845;28;20401;-55
2022/07/30 09:58:20;;;;;;;8.07;5.03;;;37.30;99.90;;;;;;5048869;28;20424;-54
2022/07/30 10:00:47;;;;;;;9.47;6.03;;;36.50;99.90;;;;;;5049749;28;20381;-55
2022/07/30 10:03:22;;;;;;;10.52;6.50;;;36.70;99.90;;;;;;5049904;28;20377;-54
2022/07/30 10:05:53;;;;;;;11.82;6.20;;;35.90;99.90;;;;;;5050126;28;20406;-52
2022/07/30 10:08:20;;;;;;;9.00;5.38;;;34.10;99.90;;;;;;5049046;28;20420;-53
2022/07/30 10:10:48;;;;;;;8.88;5.93;;;33.40;99.90;;;;;;5049744;28;20385;-52
2022/07/30 10:13:17;;;;;;;9.70;6.65;;;32.70;99.90;;;;;;5049766;28;20720;-61
2022/07/30 10:15:44;;;;;;;10.73;6.80;;;32.40;99.90;;;;;;5049755;28;20381;-57
2022/07/30 10:18:10;;;;;;;9.80;6.60;;;31.00;99.90;;;;;;5049531;28;20413;-54
2022/07/30 10:20:36;;;;;;;7.63;5.88;;;30.30;99.90;;;;;;5057783;28;21079;-54
2022/07/30 10:23:06;;;;;;;8.40;6.53;;;31.70;99.90;;;;;;5063204;28;20391;-55
2022/07/30 10:25:31;;;;;;;8.70;6.20;;;32.30;99.90;;;;;;5051313;28;20405;-54
2022/07/30 10:27:58;;;;;;;8.50;6.20;;;32.00;99.90;;;;;;5063483;28;20455;-52
2022/07/30 10:30:26;;;;;;;11.38;6.45;;;33.00;99.90;;;;;;5055860;28;20376;-53
2022/07/30 10:32:52;;;;;;;12.97;7.10;;;34.80;99.90;;;;;;5058736;28;20409;-53
2022/07/30 10:35:18;;;;;;;14.65;6.63;;;34.50;99.90;;;;;;5058040;28;20478;-61
2022/07/30 10:37:48;;;;;;;12.50;6.43;;;35.60;99.90;;;;;;5048005;28;20488;-53
2022/07/30 10:40:16;;;;;;;11.85;6.43;;;34.80;99.90;;;;;;5048956;28;20902;-60
2022/07/30 10:43:15;;;;;;;12.90;7.10;;;32.90;99.90;;;;;;5047382;28;20409;-53
2022/07/30 10:46:04;;;;;;;14.90;7.38;;;32.10;99.90;;;;;;5047651;28;20378;-53
2022/07/30 10:48:33;;;;;;;11.98;7.50;;;31.70;99.90;;;;;;5046820;28;20444;-55
2022/07/30 10:50:59;;;;;;;12.13;7.47;;;31.30;99.90;;;;;;5049071;28;20397;-53
2022/07/30 10:53:31;;;;;;;14.57;7.10;;;30.60;99.90;;;;;;5046632;28;20402;-54
2022/07/30 10:56:24;;;;;;;12.60;7.13;;;30.70;99.90;;;;;;5048683;28;20397;-53
2022/07/30 10:59:09;;;;;;;8.90;6.40;;;30.20;99.90;;;;;;5045979;28;20821;-53
2022/07/30 11:01:47;;;;;;;9.05;6.00;;;30.10;99.90;;;;;;5046672;28;20484;-54
2022/07/30 11:04:22;;;;;;;12.07;6.38;;;30.60;99.90;;;;;;5048910;28;20386;-53
2022/07/30 11:06:49;;;;;;;7.88;5.68;;;31.00;99.90;;;;;;5047705;28;20870;-53
2022/07/30 11:09:40;;;;;;;9.38;6.10;;;31.00;99.90;;;;;;5046739;28;20417;-59
2022/07/30 11:12:07;;;;;;;9.90;5.50;;;31.00;99.90;;;;;;5048655;28;20386;-53
2022/07/30 11:14:45;;;;;;;7.72;5.30;;;31.50;99.90;;;;;;5047181;28;20410;-53
2022/07/30 11:17:12;;;;;;;7.15;5.13;;;31.40;99.90;;;;;;5048338;28;20477;-53
2022/07/30 11:20:04;;;;;;;10.98;5.88;;;31.20;99.90;;;;;;5047925;28;20385;-53
2022/07/30 11:22:37;;;;;;;8.18;5.03;;;31.30;99.90;;;;;;5047652;28;20421;-58
2022/07/30 11:25:07;;;;;;;9.80;6.43;;;30.50;99.90;;;;;;5047428;28;20393;-58
2022/07/30 11:27:37;;;;;;;14.48;5.60;;;30.50;99.90;;;;;;5045959;28;20421;-53
2022/07/30 11:30:15;;;;;;;7.03;4.60;;;31.20;99.90;;;;;;5047510;28;20925;-53
2022/07/30 11:32:51;;;;;;;9.40;5.30;;;31.10;99.90;;;;;;5047673;28;20385;-53
2022/07/30 11:35:26;;;;;;;9.05;5.10;;;30.80;99.90;;;;;;5048284;28;20567;-60
2022/07/30 11:38:04;;;;;;;11.82;6.20;;;31.10;99.90;;;;;;5049179;28;20854;-54
2022/07/30 11:40:35;;;;;;;9.55;5.28;;;31.70;99.90;;;;;;5048117;28;20389;-53
2022/07/30 11:43:24;;;;;;;7.10;4.80;;;31.00;99.90;;;;;;5048795;28;21159;-53
2022/07/30 11:46:08;;;;;;;7.50;5.55;;;30.70;99.90;;;;;;5048758;28;20382;-53
2022/07/30 11:48:35;;;;;;;8.33;6.17;;;30.50;99.90;;;;;;5047944;28;20409;-53
2022/07/30 11:51:01;;;;;;;9.80;5.70;;;30.90;99.90;;;;;;5048743;28;20481;-53
2022/07/30 11:53:26;;;;;;;9.38;6.20;;;30.70;99.90;;;;;;5048005;28;20769;-53
2022/07/30 11:56:01;;;;;;;9.10;5.90;;;30.80;99.90;;;;;;5048450;28;20438;-53
2022/07/30 11:58:30;;;;;;;10.55;5.35;;;30.70;99.90;;;;;;5049052;28;21037;-53
2022/07/30 12:01:02;;;;;;;8.70;5.43;;;31.00;99.90;;;;;;5052560;28;20392;-53
2022/07/30 12:03:32;;;;;;;6.70;4.80;;;31.20;99.90;;;;;;5051459;28;20750;-53
2022/07/30 12:06:08;;;;;;;7.65;5.85;;;30.80;99.90;;;;;;5052148;28;20544;-53
2022/07/30 12:08:42;;;;;;;7.75;4.55;;;30.60;99.90;;;;;;5051571;28;20433;-53
2022/07/30 12:11:09;;;;;;;9.68;5.30;;;30.80;99.90;;;;;;5052102;28;20866;-53
2022/07/30 12:13:35;;;;;;;9.23;4.70;;;31.10;99.90;;;;;;5051340;28;20412;-53
2022/07/30 12:16:07;;;;;;;7.75;5.10;;;31.10;99.90;;;;;;5052012;28;21186;-54
2022/07/30 12:18:32;;;;;;;8.53;5.63;;;31.20;99.90;;;;;;5051429;28;20412;-53
2022/07/30 12:21:10;;;;;;;8.83;5.73;;;30.60;99.90;;;;;;5052254;28;20424;-53
2022/07/30 12:23:37;;;;;;;7.60;5.40;;;30.30;99.90;;;;;;5051213;28;20377;-53
2022/07/30 12:26:03;;;;;;;9.80;6.18;;;30.20;99.90;;;;;;5051382;28;20389;-53
2022/07/30 12:28:31;;;;;;;8.10;4.80;;;30.30;99.90;;;;;;5050447;28;20449;-53
2022/07/30 12:30:59;;;;;;;8.20;5.10;;;30.20;99.90;;;;;;5051887;28;20708;-53
2022/07/30 12:33:25;;;;;;;7.70;5.60;;;29.90;99.90;;;;;;5033159;28;20758;-53
2022/07/30 12:35:55;;;;;;;8.93;5.60;;;30.10;99.90;;;;;;5051586;28;20378;-53
2022/07/30 12:38:23;;;;;;;6.97;5.30;;;30.40;99.90;;;;;;5051507;28;20432;-59
2022/07/30 12:40:54;;;;;;;6.97;5.20;;;30.30;99.90;;;;;;5051324;28;20378;-53
2022/07/30 12:43:42;;;;;;;7.50;5.53;;;30.20;99.90;;;;;;5050943;28;20731;-59
2022/07/30 12:46:07;;;;;;;7.05;4.95;;;30.10;99.90;;;;;;5051373;28;20785;-54
2022/07/30 12:48:33;;;;;;;7.60;4.83;;;29.90;99.90;;;;;;5032886;28;20409;-53
2022/07/30 12:51:11;;;;;;;7.70;5.73;;;29.70;99.90;;;;;;5051177;28;20858;-52
2022/07/30 12:53:37;;;;;;;9.15;5.70;;;29.80;99.90;;;;;;5050846;28;20389;-53
2022/07/30 12:56:20;;;;;;;8.85;5.78;;;30.10;99.90;;;;;;5051527;28;20389;-53
2022/07/30 12:58:46;;;;;;;7.80;5.20;;;30.40;99.90;;;;;;5033207;28;20759;-53
2022/07/30 13:01:12;;;;;;;7.70;5.60;;;29.90;99.90;;;;;;5051377;28;20382;-53
2022/07/30 13:03:39;;;;;;;8.50;6.20;;;30.10;99.90;;;;;;5050723;28;20413;-53
2022/07/30 13:06:13;;;;;;;8.93;6.50;;;30.70;99.90;;;;;;5050987;28;20925;-53